createdAt,value
2023-04-21T00:00:22.788Z,99.90
2023-04-21T00:03:24.623Z,99.90
2023-04-21T00:06:27.046Z,99.90
2023-04-21T00:09:28.727Z,99.90
2023-04-21T00:12:29.510Z,99.90
2023-04-21T00:15:30.912Z,99.90
2023-04-21T00:18:31.954Z,99.90
2023-04-21T00:21:36.600Z,99.90
2023-04-21T00:24:37.542Z,99.90
2023-04-21T00:27:38.563Z,99.90
2023-04-21T00:30:39.433Z,99.90
2023-04-21T00:33:41.095Z,99.90
2023-04-21T00:36:42.264Z,99.90
2023-04-21T00:39:43.250Z,99.90
2023-04-21T00:42:44.520Z,99.90
2023-04-21T00:45:48.294Z,99.90
2023-04-21T00:48:49.170Z,99.90
2023-04-21T00:51:52.433Z,99.90
2023-04-21T00:54:54.942Z,99.90
2023-04-21T00:57:56.816Z,99.90
2023-04-21T01:01:02.005Z,99.90
2023-04-21T01:04:05.466Z,99.90
2023-04-21T01:07:08.115Z,99.90
2023-04-21T01:10:09.420Z,99.90
2023-04-21T01:13:10.258Z,99.90
2023-04-21T01:16:18.350Z,99.90
2023-04-21T01:19:21.060Z,99.90
2023-04-21T01:22:22.142Z,99.90
2023-04-21T01:25:26.158Z,99.90
2023-04-21T01:28:27.393Z,99.90
2023-04-21T01:31:28.320Z,99.90
2023-04-21T01:34:29.518Z,99.90
2023-04-21T01:37:34.178Z,99.90
2023-04-21T01:40:35.241Z,99.90
2023-04-21T01:43:37.370Z,99.90
2023-04-21T01:46:38.811Z,99.90
2023-04-21T01:49:39.842Z,99.90
2023-04-21T01:52:42.187Z,99.90
2023-04-21T01:55:43.494Z,99.90
2023-04-21T01:58:44.194Z,99.90
2023-04-21T02:01:45.439Z,99.90
2023-04-21T02:04:46.820Z,99.90
2023-04-21T02:07:47.909Z,99.90
2023-04-21T02:10:49.472Z,99.90
2023-04-21T02:13:50.596Z,99.90
2023-04-21T02:16:51.897Z,99.90
2023-04-21T02:19:53.167Z,99.90
2023-04-21T02:22:55.870Z,99.90
2023-04-21T02:25:56.930Z,99.90
2023-04-21T02:28:57.664Z,99.90
2023-04-21T02:32:07.837Z,99.90
2023-04-21T02:35:15.810Z,99.90
2023-04-21T02:38:16.795Z,99.90
2023-04-21T02:41:17.836Z,99.90
2023-04-21T02:44:18.926Z,99.90
2023-04-21T02:47:20.304Z,99.90
2023-04-21T02:50:21.792Z,99.90
2023-04-21T02:53:22.757Z,99.90
2023-04-21T02:56:25.761Z,99.90
2023-04-21T02:59:26.493Z,99.90
2023-04-21T03:02:27.993Z,99.90
2023-04-21T03:05:29.511Z,99.90
2023-04-21T03:08:31.940Z,99.90
2023-04-21T03:11:33.754Z,99.90
2023-04-21T03:14:34.708Z,99.90
2023-04-21T03:17:35.770Z,99.90
2023-04-21T03:20:37.043Z,99.90
2023-04-21T03:23:38.026Z,99.90
2023-04-21T03:26:43.557Z,99.90
2023-04-21T03:29:44.681Z,99.90
2023-04-21T03:32:45.668Z,99.90
2023-04-21T03:35:47.125Z,99.90
2023-04-21T03:38:48.217Z,99.90
2023-04-21T03:41:49.124Z,99.90
2023-04-21T03:44:50.549Z,99.90
2023-04-21T03:47:55.924Z,99.90
2023-04-21T03:50:56.912Z,99.90
2023-04-21T03:53:57.992Z,99.90
2023-04-21T03:56:58.938Z,99.90
2023-04-21T04:00:00.041Z,99.90
2023-04-21T04:03:01.292Z,99.90
2023-04-21T04:06:04.379Z,99.90
2023-04-21T04:09:05.592Z,99.90
2023-04-21T04:12:06.675Z,99.90
2023-04-21T04:15:08.402Z,99.90
2023-04-21T04:18:09.373Z,99.90
2023-04-21T04:21:10.180Z,99.90
2023-04-21T04:24:11.761Z,99.90
2023-04-21T04:27:14.384Z,99.90
2023-04-21T04:30:15.782Z,99.90
2023-04-21T04:33:16.733Z,99.90
2023-04-21T04:36:17.552Z,99.90
2023-04-21T04:39:18.519Z,99.90
2023-04-21T04:42:20.526Z,99.90
2023-04-21T04:45:22.460Z,99.90
2023-04-21T04:48:24.677Z,99.90
2023-04-21T04:51:25.923Z,99.90
2023-04-21T04:54:29.215Z,99.90
2023-04-21T04:57:31.561Z,99.90
2023-04-21T05:00:32.957Z,99.90
2023-04-21T05:03:34.381Z,99.90
2023-04-21T05:06:35.626Z,99.90
2023-04-21T05:09:36.847Z,99.90
2023-04-21T05:12:37.705Z,99.90
2023-04-21T05:15:38.418Z,99.90
2023-04-21T05:18:39.338Z,99.90
2023-04-21T05:21:40.471Z,99.90
2023-04-21T05:24:43.144Z,99.90
2023-04-21T05:27:44.272Z,99.90
2023-04-21T05:30:45.020Z,99.90
2023-04-21T05:33:46.337Z,99.90
2023-04-21T05:36:49.216Z,99.90
2023-04-21T05:39:51.356Z,99.90
2023-04-21T05:42:52.412Z,99.90
2023-04-21T05:45:53.538Z,99.90
2023-04-21T05:48:54.667Z,99.90
2023-04-21T05:51:56.028Z,99.90
2023-04-21T05:55:02.383Z,99.90
2023-04-21T05:58:04.448Z,99.90
2023-04-21T06:01:09.129Z,99.90
2023-04-21T06:04:10.566Z,99.90
2023-04-21T06:07:13.826Z,99.90
2023-04-21T06:10:15.133Z,99.90
2023-04-21T06:13:16.256Z,99.90
2023-04-21T06:16:17.723Z,99.90
2023-04-21T06:19:18.651Z,99.90
2023-04-21T06:22:24.144Z,99.90
2023-04-21T06:25:25.193Z,99.90
2023-04-21T06:28:26.157Z,99.90
2023-04-21T06:31:27.368Z,99.90
2023-04-21T06:34:28.364Z,99.90
2023-04-21T06:37:29.300Z,99.90
2023-04-21T06:40:30.413Z,99.90
2023-04-21T06:43:31.568Z,99.90
2023-04-21T06:46:32.923Z,99.90
2023-04-21T06:49:34.532Z,99.90
2023-04-21T06:52:35.526Z,99.90
2023-04-21T06:55:36.457Z,99.90
2023-04-21T06:58:37.277Z,99.90
2023-04-21T07:01:38.365Z,99.90
2023-04-21T07:04:42.872Z,99.90
2023-04-21T07:07:44.117Z,99.90
2023-04-21T07:10:45.019Z,99.90
2023-04-21T07:13:46.610Z,99.90
2023-04-21T07:16:47.733Z,99.90
2023-04-21T07:19:48.439Z,99.90
2023-04-21T07:22:49.345Z,99.90
2023-04-21T07:25:51.890Z,99.90
2023-04-21T07:28:53.136Z,99.90
2023-04-21T07:31:55.324Z,99.90
2023-04-21T07:34:56.759Z,99.90
2023-04-21T07:37:58.049Z,99.90
2023-04-21T07:41:00.390Z,99.90
2023-04-21T07:44:01.593Z,99.90
2023-04-21T07:47:02.799Z,99.90
2023-04-21T07:50:04.372Z,99.90
2023-04-21T07:53:05.772Z,99.90
2023-04-21T07:56:07.707Z,99.90
2023-04-21T07:59:09.055Z,99.90
2023-04-21T08:02:10.379Z,99.90
2023-04-21T08:05:11.623Z,99.90
2023-04-21T08:08:12.963Z,99.90
2023-04-21T08:11:13.908Z,99.90
2023-04-21T08:14:15.113Z,99.90
2023-04-21T08:17:16.525Z,99.90
2023-04-21T08:20:17.727Z,99.90
2023-04-21T08:23:19.076Z,99.90
2023-04-21T08:26:21.937Z,99.90
2023-04-21T08:29:23.032Z,99.90
2023-04-21T08:32:24.781Z,99.90
2023-04-21T08:35:25.971Z,99.90
2023-04-21T08:38:26.798Z,99.90
2023-04-21T08:41:28.046Z,99.90
2023-04-21T08:44:29.029Z,99.90
2023-04-21T08:47:31.247Z,99.90
2023-04-21T08:50:34.175Z,99.90
2023-04-21T08:53:35.590Z,99.90
2023-04-21T08:56:36.629Z,99.90
2023-04-21T08:59:37.854Z,99.90
2023-04-21T09:03:00.961Z,99.90
2023-04-21T09:06:06.856Z,99.90
2023-04-21T09:09:08.072Z,99.90
2023-04-21T09:12:08.926Z,99.90
2023-04-21T09:15:12.817Z,99.90
2023-04-21T09:18:16.766Z,99.90
2023-04-21T09:21:20.058Z,99.90
2023-04-21T09:24:21.538Z,99.90
2023-04-21T09:27:22.338Z,99.90
2023-04-21T09:30:23.396Z,99.90
2023-04-21T09:33:30.616Z,99.90
2023-04-21T09:36:33.427Z,99.90
2023-04-21T09:39:49.258Z,99.90
2023-04-21T09:42:55.189Z,99.90
2023-04-21T09:45:58.163Z,99.90
2023-04-21T09:49:01.998Z,99.90
2023-04-21T09:55:14.036Z,99.90
2023-04-21T09:58:22.718Z,99.90
2023-04-21T10:01:27.742Z,99.90
2023-04-21T10:04:32.449Z,99.90
2023-04-21T10:07:33.815Z,99.90
2023-04-21T10:10:35.909Z,99.90
2023-04-21T10:13:38.882Z,99.90
2023-04-21T10:16:40.069Z,99.90
2023-04-21T10:19:54.243Z,99.90
2023-04-21T10:22:58.935Z,99.90
2023-04-21T10:26:15.405Z,99.90
2023-04-21T10:29:16.698Z,99.90
2023-04-21T10:32:42.671Z,99.90
2023-04-21T10:36:05.174Z,99.90
2023-04-21T10:39:06.382Z,99.90
2023-04-21T10:42:13.574Z,99.90
2023-04-21T10:45:14.775Z,99.90
2023-04-21T10:48:16.133Z,99.90
2023-04-21T10:51:16.886Z,99.90
2023-04-21T10:54:18.289Z,99.90
2023-04-21T10:57:20.840Z,99.90
2023-04-21T11:00:24.632Z,99.90
2023-04-21T11:03:25.823Z,99.90
2023-04-21T11:06:27.426Z,99.90
2023-04-21T11:09:28.128Z,99.90
2023-04-21T11:12:34.448Z,99.90
2023-04-21T11:15:35.799Z,99.60
2023-04-21T11:18:42.449Z,97.40
2023-04-21T11:21:43.151Z,99.00
2023-04-21T11:24:48.923Z,98.90
2023-04-21T11:28:00.217Z,98.20
2023-04-21T11:31:01.315Z,94.60
2023-04-21T11:34:05.609Z,97.80
2023-04-21T11:37:23.354Z,95.30
2023-04-21T11:40:24.669Z,95.00
2023-04-21T11:43:26.500Z,94.10
2023-04-21T11:46:29.177Z,92.80
2023-04-21T11:49:30.789Z,94.60
2023-04-21T11:52:37.733Z,91.90
2023-04-21T11:55:42.781Z,92.70
2023-04-21T11:58:46.172Z,93.00
2023-04-21T12:01:52.107Z,90.70
2023-04-21T12:05:04.415Z,90.50
2023-04-21T12:08:06.561Z,88.80
2023-04-21T12:11:07.704Z,89.70
2023-04-21T12:14:09.399Z,90.00
2023-04-21T12:17:11.001Z,88.00
2023-04-21T12:20:15.649Z,88.10
2023-04-21T12:23:16.738Z,88.40
2023-04-21T12:26:17.736Z,87.40
2023-04-21T12:29:18.789Z,85.30
2023-04-21T12:32:22.058Z,82.80
2023-04-21T12:35:24.156Z,85.00
2023-04-21T12:38:25.490Z,83.80
2023-04-21T12:41:26.387Z,81.30
2023-04-21T12:44:27.745Z,79.80
2023-04-21T12:47:28.984Z,83.70
2023-04-21T12:50:29.999Z,83.70
2023-04-21T12:53:32.468Z,83.70
2023-04-21T12:56:33.492Z,90.00
2023-04-21T12:59:34.808Z,88.70
2023-04-21T13:02:37.479Z,90.00
2023-04-21T13:05:38.790Z,93.00
2023-04-21T13:08:40.335Z,92.40
2023-04-21T13:11:41.318Z,97.10
2023-04-21T13:14:42.105Z,96.10
2023-04-21T13:17:43.032Z,95.00
2023-04-21T13:20:43.867Z,93.20
2023-04-21T13:23:44.731Z,93.90
2023-04-21T13:26:45.870Z,95.30
2023-04-21T13:29:47.900Z,96.60
2023-04-21T13:32:50.380Z,97.00
2023-04-21T13:35:52.016Z,97.40
2023-04-21T13:38:55.534Z,99.90
2023-04-21T13:41:56.982Z,99.90
2023-04-21T13:44:58.176Z,99.90
2023-04-21T13:47:59.226Z,99.90
2023-04-21T13:51:01.140Z,99.90
2023-04-21T13:54:01.988Z,99.90
2023-04-21T13:57:03.027Z,99.90
2023-04-21T14:00:12.209Z,99.90
2023-04-21T14:03:14.269Z,99.90
2023-04-21T14:06:16.757Z,99.90
2023-04-21T14:09:18.335Z,99.90
2023-04-21T14:12:19.517Z,99.90
2023-04-21T14:15:20.529Z,99.90
2023-04-21T14:18:21.862Z,99.90
2023-04-21T14:21:23.026Z,99.90
2023-04-21T14:24:24.377Z,99.90
2023-04-21T14:27:25.200Z,99.90
2023-04-21T14:30:26.190Z,95.50
2023-04-21T14:33:27.622Z,92.30
2023-04-21T14:36:28.946Z,90.70
2023-04-21T14:39:29.786Z,90.40
2023-04-21T14:42:30.918Z,99.90
2023-04-21T14:45:32.662Z,99.90
2023-04-21T14:48:33.982Z,99.90
2023-04-21T14:51:35.165Z,99.90
2023-04-21T14:54:36.504Z,99.90
2023-04-21T14:57:37.675Z,99.90
2023-04-21T15:00:39.748Z,99.90
2023-04-21T15:03:41.047Z,99.90
2023-04-21T15:06:43.025Z,99.90
2023-04-21T15:09:45.952Z,99.90
2023-04-21T15:12:47.300Z,99.90
2023-04-21T15:15:48.333Z,99.90
2023-04-21T15:18:49.323Z,99.90
2023-04-21T15:21:50.484Z,99.90
2023-04-21T15:24:53.796Z,99.90
2023-04-21T15:27:55.538Z,99.90
2023-04-21T15:30:56.430Z,99.90
2023-04-21T15:33:58.176Z,99.90
2023-04-21T15:36:59.396Z,99.90
2023-04-21T15:40:00.733Z,99.90
2023-04-21T15:43:02.130Z,99.90
2023-04-21T15:46:04.691Z,99.90
2023-04-21T15:49:05.957Z,99.90
2023-04-21T15:52:07.300Z,99.90
2023-04-21T15:55:10.536Z,99.90
2023-04-21T15:58:13.819Z,99.90
2023-04-21T16:01:15.725Z,99.90
2023-04-21T16:04:17.242Z,99.90
2023-04-21T16:07:18.808Z,99.90
2023-04-21T16:10:19.882Z,99.90
2023-04-21T16:13:20.861Z,99.90
2023-04-21T16:16:22.272Z,99.90
2023-04-21T16:19:23.719Z,99.90
2023-04-21T16:22:24.826Z,99.90
2023-04-21T16:25:27.418Z,99.90
2023-04-21T16:28:28.588Z,99.90
2023-04-21T16:31:30.233Z,99.90
2023-04-21T16:34:31.167Z,99.90
2023-04-21T16:37:32.430Z,99.90
2023-04-21T16:40:33.875Z,99.90
2023-04-21T16:43:34.739Z,99.90
2023-04-21T16:46:36.390Z,99.90
2023-04-21T16:49:37.746Z,99.90
2023-04-21T16:52:38.915Z,99.90
2023-04-21T16:55:39.773Z,99.90
2023-04-21T16:58:41.307Z,99.90
2023-04-21T17:01:42.320Z,99.90
2023-04-21T17:04:43.915Z,99.90
2023-04-21T17:07:45.297Z,99.90
2023-04-21T17:10:46.577Z,99.90
2023-04-21T17:13:47.697Z,99.90
2023-04-21T17:16:49.134Z,99.90
2023-04-21T17:19:50.150Z,99.90
2023-04-21T17:22:51.415Z,99.90
2023-04-21T17:25:52.451Z,99.90
2023-04-21T17:28:53.859Z,99.90
2023-04-21T17:31:55.386Z,99.90
2023-04-21T17:34:56.473Z,99.90
2023-04-21T17:37:57.270Z,99.90
2023-04-21T17:40:59.578Z,99.90
2023-04-21T17:44:01.151Z,99.90
2023-04-21T17:47:03.501Z,99.90
2023-04-21T17:50:04.944Z,99.90
2023-04-21T17:53:06.557Z,99.90
2023-04-21T17:56:08.853Z,99.90
2023-04-21T17:59:09.830Z,99.90
2023-04-21T18:02:11.643Z,99.90
2023-04-21T18:05:13.896Z,99.90
2023-04-21T18:08:15.557Z,99.90
2023-04-21T18:11:16.613Z,99.90
2023-04-21T18:14:18.084Z,99.90
2023-04-21T18:17:19.231Z,99.90
2023-04-21T18:20:20.663Z,99.90
2023-04-21T18:23:21.863Z,99.90
2023-04-21T18:26:23.061Z,99.90
2023-04-21T18:29:24.352Z,99.90
2023-04-21T18:32:25.148Z,99.90
2023-04-21T18:35:26.248Z,99.90
2023-04-21T18:38:27.236Z,99.90
2023-04-21T18:41:28.504Z,99.90
2023-04-21T18:44:30.214Z,99.90
2023-04-21T18:47:35.159Z,99.90
2023-04-21T18:50:40.570Z,99.90
2023-04-21T18:53:43.514Z,99.90
2023-04-21T18:56:44.498Z,99.90
2023-04-21T18:59:45.247Z,99.90
2023-04-21T19:02:49.065Z,99.90
2023-04-21T19:05:50.205Z,99.90
2023-04-21T19:08:53.634Z,99.90
2023-04-21T19:11:54.827Z,99.90
2023-04-21T19:14:56.206Z,99.90
2023-04-21T19:17:57.395Z,99.90
2023-04-21T19:20:58.890Z,99.90
2023-04-21T19:24:00.304Z,99.90
2023-04-21T19:27:02.617Z,99.90
2023-04-21T19:30:05.575Z,99.90
2023-04-21T19:33:06.594Z,99.90
2023-04-21T19:36:07.725Z,99.90
2023-04-21T19:39:09.463Z,99.90
2023-04-21T19:42:10.296Z,99.90
2023-04-21T19:45:11.872Z,99.90
2023-04-21T19:48:12.687Z,99.90
2023-04-21T19:51:13.820Z,99.90
2023-04-21T19:54:14.812Z,99.90
2023-04-21T19:57:16.282Z,99.90
2023-04-21T20:00:17.411Z,99.90
2023-04-21T20:03:18.794Z,99.90
2023-04-21T20:06:20.062Z,99.90
2023-04-21T20:09:21.783Z,99.90
2023-04-21T20:12:23.022Z,99.90
2023-04-21T20:15:24.525Z,99.90
2023-04-21T20:18:25.493Z,99.90
2023-04-21T20:21:26.442Z,99.90
2023-04-21T20:24:28.025Z,99.90
2023-04-21T20:27:29.104Z,99.90
2023-04-21T20:30:29.877Z,99.90
2023-04-21T20:33:30.817Z,99.90
2023-04-21T20:36:31.805Z,99.90
2023-04-21T20:39:32.890Z,99.90
2023-04-21T20:42:35.395Z,99.90
2023-04-21T20:45:36.613Z,99.90
2023-04-21T20:48:37.329Z,99.90
2023-04-21T20:51:47.904Z,99.90
2023-04-21T20:54:48.783Z,99.90
2023-04-21T20:57:49.591Z,99.90
2023-04-21T21:00:50.544Z,99.90
2023-04-21T21:03:51.909Z,99.90
2023-04-21T21:06:53.345Z,99.90
2023-04-21T21:09:54.573Z,99.90
2023-04-21T21:12:55.584Z,99.90
2023-04-21T21:15:57.151Z,99.90
2023-04-21T21:18:58.272Z,99.90
2023-04-21T21:21:59.223Z,99.90
2023-04-21T21:25:00.212Z,99.90
2023-04-21T21:28:01.577Z,99.90
2023-04-21T21:31:02.640Z,99.90
2023-04-21T21:34:04.255Z,99.90
2023-04-21T21:37:05.318Z,99.90
2023-04-21T21:40:07.970Z,99.90
2023-04-21T21:43:10.571Z,99.90
2023-04-21T21:46:12.071Z,99.90
2023-04-21T21:49:13.338Z,99.90
2023-04-21T21:52:15.276Z,99.90
2023-04-21T21:55:15.992Z,99.90
2023-04-21T21:58:17.113Z,99.90
2023-04-21T22:01:18.459Z,99.90
2023-04-21T22:04:19.461Z,99.90
2023-04-21T22:07:21.252Z,99.90
2023-04-21T22:10:23.482Z,99.90
2023-04-21T22:13:24.491Z,99.90
2023-04-21T22:16:25.294Z,99.90
2023-04-21T22:19:26.817Z,99.90
2023-04-21T22:22:27.775Z,99.90
2023-04-21T22:25:28.732Z,99.90
2023-04-21T22:28:30.151Z,99.90
2023-04-21T22:31:31.313Z,99.90
2023-04-21T22:34:32.561Z,99.90
2023-04-21T22:37:33.442Z,99.90
2023-04-21T22:40:34.309Z,99.90
2023-04-21T22:43:36.219Z,99.90
2023-04-21T22:46:37.976Z,99.90
2023-04-21T22:49:39.376Z,99.90
2023-04-21T22:52:40.460Z,99.90
2023-04-21T22:55:41.387Z,99.90
2023-04-21T22:58:43.231Z,99.90
2023-04-21T23:01:44.307Z,99.90
2023-04-21T23:04:45.911Z,99.90
2023-04-21T23:07:47.514Z,99.90
2023-04-21T23:10:48.513Z,99.90
2023-04-21T23:13:49.573Z,99.90
2023-04-21T23:16:50.439Z,99.90
2023-04-21T23:19:51.509Z,99.90
2023-04-21T23:22:52.652Z,99.90
2023-04-21T23:25:53.527Z,99.90
2023-04-21T23:28:54.327Z,99.90
2023-04-21T23:31:55.414Z,99.90
2023-04-21T23:34:56.725Z,99.90
2023-04-21T23:37:57.745Z,99.90
2023-04-21T23:40:58.754Z,99.90
2023-04-21T23:44:00.198Z,99.90
2023-04-21T23:47:01.771Z,99.90
2023-04-21T23:50:03.837Z,99.90
2023-04-21T23:53:05.122Z,99.90
2023-04-21T23:56:06.446Z,99.90
2023-04-21T23:59:07.656Z,99.90
